sensor_id;sensor_type;location;lat;lon;timestamp;pressure;altitude;pressure_sealevel;temperature;humidity
59043;BME280;44826;51.596;5.624;2024-02-26T00:02:13;99767.75;;;5.17;92.06
59043;BME280;44826;51.596;5.624;2024-02-26T00:04:39;99772.97;;;5.14;92.34
59043;BME280;44826;51.596;5.624;2024-02-26T00:07:04;99780.69;;;5.15;93.19
59043;BME280;44826;51.596;5.624;2024-02-26T00:09:30;99777.22;;;5.15;93.71
59043;BME280;44826;51.596;5.624;2024-02-26T00:11:55;99778.06;;;5.17;94.12
59043;BME280;44826;51.596;5.624;2024-02-26T00:14:21;99771.25;;;5.14;94.18
59043;BME280;44826;51.596;5.624;2024-02-26T00:16:46;99785.78;;;5.17;93.73
59043;BME280;44826;51.596;5.624;2024-02-26T00:19:11;99773.78;;;5.16;94.88
59043;BME280;44826;51.596;5.624;2024-02-26T00:21:40;99781.50;;;5.16;95.48
59043;BME280;44826;51.596;5.624;2024-02-26T00:24:07;99768.66;;;5.14;95.55
59043;BME280;44826;51.596;5.624;2024-02-26T00:26:32;99767.75;;;5.17;95.72
59043;BME280;44826;51.596;5.624;2024-02-26T00:28:58;99755.72;;;5.16;95.31
59043;BME280;44826;51.596;5.624;2024-02-26T00:31:23;99752.34;;;5.14;95.84
59043;BME280;44826;51.596;5.624;2024-02-26T00:33:48;99764.38;;;5.13;95.39
59043;BME280;44826;51.596;5.624;2024-02-26T00:36:14;99755.84;;;5.11;95.00
59043;BME280;44826;51.596;5.624;2024-02-26T00:38:39;99753.31;;;5.08;96.35
59043;BME280;44826;51.596;5.624;2024-02-26T00:41:05;99751.63;;;5.07;96.03
59043;BME280;44826;51.596;5.624;2024-02-26T00:43:30;99759.34;;;5.09;95.86
59043;BME280;44826;51.596;5.624;2024-02-26T00:45:56;99765.38;;;5.08;96.11
59043;BME280;44826;51.596;5.624;2024-02-26T00:48:21;99768.81;;;5.07;95.97
59043;BME280;44826;51.596;5.624;2024-02-26T00:50:47;99772.25;;;5.07;95.89
59043;BME280;44826;51.596;5.624;2024-02-26T00:53:12;99763.69;;;5.05;96.34
59043;BME280;44826;51.596;5.624;2024-02-26T00:55:37;99768.81;;;5.07;96.38
59043;BME280;44826;51.596;5.624;2024-02-26T00:58:03;99765.38;;;5.08;96.23
59043;BME280;44826;51.596;5.624;2024-02-26T01:00:28;99766.25;;;5.07;96.48
59043;BME280;44826;51.596;5.624;2024-02-26T01:02:53;99765.38;;;5.06;96.56
59043;BME280;44826;51.596;5.624;2024-02-26T01:05:19;99763.66;;;5.07;97.05
59043;BME280;44826;51.596;5.624;2024-02-26T01:07:44;99769.69;;;5.06;96.35
59043;BME280;44826;51.596;5.624;2024-02-26T01:10:09;99761.16;;;5.04;96.91
59043;BME280;44826;51.596;5.624;2024-02-26T01:12:35;99765.44;;;5.05;97.15
59043;BME280;44826;51.596;5.624;2024-02-26T01:15:02;99754.28;;;5.03;97.57
59043;BME280;44826;51.596;5.624;2024-02-26T01:17:28;99759.50;;;4.99;97.97
59043;BME280;44826;51.596;5.624;2024-02-26T01:19:53;99762.97;;;4.98;97.66
59043;BME280;44826;51.596;5.624;2024-02-26T01:22:19;99770.69;;;5.00;97.45
59043;BME280;44826;51.596;5.624;2024-02-26T01:24:45;99766.41;;;4.99;97.58
59043;BME280;44826;51.596;5.624;2024-02-26T01:27:10;99780.13;;;4.99;96.97
59043;BME280;44826;51.596;5.624;2024-02-26T01:29:35;99777.56;;;4.99;97.92
59043;BME280;44826;51.596;5.624;2024-02-26T01:32:01;99780.13;;;4.99;97.23
59043;BME280;44826;51.596;5.624;2024-02-26T01:34:26;99774.16;;;4.97;97.46
59043;BME280;44826;51.596;5.624;2024-02-26T01:36:52;99785.28;;;4.99;97.44
59043;BME280;44826;51.596;5.624;2024-02-26T01:39:17;99787.03;;;4.97;97.74
59043;BME280;44826;51.596;5.624;2024-02-26T01:41:43;99790.47;;;4.98;97.43
59043;BME280;44826;51.596;5.624;2024-02-26T01:44:12;99789.63;;;4.97;97.50
59043;BME280;44826;51.596;5.624;2024-02-26T01:46:37;99789.63;;;4.97;98.23
59043;BME280;44826;51.596;5.624;2024-02-26T01:49:03;99793.06;;;4.98;97.45
59043;BME280;44826;51.596;5.624;2024-02-26T01:51:29;99793.94;;;4.97;97.72
59043;BME280;44826;51.596;5.624;2024-02-26T01:53:56;99795.66;;;4.96;97.70
59043;BME280;44826;51.596;5.624;2024-02-26T01:56:22;99797.34;;;4.97;97.71
59043;BME280;44826;51.596;5.624;2024-02-26T01:58:48;99805.97;;;4.96;96.98
59043;BME280;44826;51.596;5.624;2024-02-26T02:01:15;99800.84;;;4.95;97.60
59043;BME280;44826;51.596;5.624;2024-02-26T02:03:41;99805.97;;;4.96;97.28
59043;BME280;44826;51.596;5.624;2024-02-26T02:06:07;99806.88;;;4.94;97.44
59043;BME280;44826;51.596;5.624;2024-02-26T02:08:33;99803.47;;;4.93;97.87
59043;BME280;44826;51.596;5.624;2024-02-26T02:11:00;99797.50;;;4.91;98.22
59043;BME280;44826;51.596;5.624;2024-02-26T02:13:25;99802.66;;;4.91;98.59
59043;BME280;44826;51.596;5.624;2024-02-26T02:15:51;99796.63;;;4.91;98.53
59043;BME280;44826;51.596;5.624;2024-02-26T02:18:17;99794.09;;;4.88;98.77
59043;BME280;44826;51.596;5.624;2024-02-26T02:20:42;99795.84;;;4.87;99.51
59043;BME280;44826;51.596;5.624;2024-02-26T02:23:08;99793.31;;;4.84;98.64
59043;BME280;44826;51.596;5.624;2024-02-26T02:25:33;99789.03;;;4.83;99.21
59043;BME280;44826;51.596;5.624;2024-02-26T02:27:58;99790.78;;;4.81;99.96
59043;BME280;44826;51.596;5.624;2024-02-26T02:30:25;99796.81;;;4.80;99.38
59043;BME280;44826;51.596;5.624;2024-02-26T02:32:52;99790.88;;;4.78;99.96
59043;BME280;44826;51.596;5.624;2024-02-26T02:35:17;99793.44;;;4.78;99.73
59043;BME280;44826;51.596;5.624;2024-02-26T02:37:43;99789.19;;;4.77;100.00
59043;BME280;44826;51.596;5.624;2024-02-26T02:40:08;99787.53;;;4.73;100.00
59043;BME280;44826;51.596;5.624;2024-02-26T02:42:33;99793.50;;;4.75;100.00
59043;BME280;44826;51.596;5.624;2024-02-26T02:44:59;99788.38;;;4.73;100.00
59043;BME280;44826;51.596;5.624;2024-02-26T02:47:24;99796.97;;;4.74;100.00
59043;BME280;44826;51.596;5.624;2024-02-26T02:49:49;99796.13;;;4.71;100.00
59043;BME280;44826;51.596;5.624;2024-02-26T02:52:15;99794.44;;;4.70;100.00
59043;BME280;44826;51.596;5.624;2024-02-26T02:54:40;99794.47;;;4.69;100.00
59043;BME280;44826;51.596;5.624;2024-02-26T02:57:10;99797.94;;;4.66;100.00
59043;BME280;44826;51.596;5.624;2024-02-26T02:59:37;99791.09;;;4.65;100.00
59043;BME280;44826;51.596;5.624;2024-02-26T03:02:02;99800.50;;;4.66;100.00
59043;BME280;44826;51.596;5.624;2024-02-26T03:04:27;99797.97;;;4.65;100.00
59043;BME280;44826;51.596;5.624;2024-02-26T03:06:54;99804.84;;;4.64;100.00
59043;BME280;44826;51.596;5.624;2024-02-26T03:09:19;99805.69;;;4.65;100.00
59043;BME280;44826;51.596;5.624;2024-02-26T03:11:45;99815.13;;;4.66;100.00
59043;BME280;44826;51.596;5.624;2024-02-26T03:14:10;99805.72;;;4.63;100.00
59043;BME280;44826;51.596;5.624;2024-02-26T03:16:35;99804.88;;;4.61;100.00
59043;BME280;44826;51.596;5.624;2024-02-26T03:19:01;99808.38;;;4.60;100.00
59043;BME280;44826;51.596;5.624;2024-02-26T03:21:27;99808.41;;;4.57;100.00
59043;BME280;44826;51.596;5.624;2024-02-26T03:23:52;99809.28;;;4.56;100.00
59043;BME280;44826;51.596;5.624;2024-02-26T03:26:17;99805.84;;;4.55;100.00
59043;BME280;44826;51.596;5.624;2024-02-26T03:28:43;99801.66;;;4.51;100.00
59043;BME280;44826;51.596;5.624;2024-02-26T03:31:08;99805.00;;;4.55;100.00
59043;BME280;44826;51.596;5.624;2024-02-26T03:33:34;99810.16;;;4.55;100.00
59043;BME280;44826;51.596;5.624;2024-02-26T03:35:59;99817.03;;;4.56;100.00
59043;BME280;44826;51.596;5.624;2024-02-26T03:38:24;99810.16;;;4.55;100.00
59043;BME280;44826;51.596;5.624;2024-02-26T03:40:50;99818.72;;;4.57;100.00
59043;BME280;44826;51.596;5.624;2024-02-26T03:43:16;99812.72;;;4.56;100.00
59043;BME280;44826;51.596;5.624;2024-02-26T03:45:42;99806.72;;;4.56;100.00
59043;BME280;44826;51.596;5.624;2024-02-26T03:48:07;99815.28;;;4.56;100.00
59043;BME280;44826;51.596;5.624;2024-02-26T03:50:33;99810.13;;;4.58;100.00
59043;BME280;44826;51.596;5.624;2024-02-26T03:52:59;99816.09;;;4.59;100.00
59043;BME280;44826;51.596;5.624;2024-02-26T03:55:25;99817.81;;;4.60;100.00
59043;BME280;44826;51.596;5.624;2024-02-26T03:57:51;99822.09;;;4.61;100.00
59043;BME280;44826;51.596;5.624;2024-02-26T04:00:17;99812.66;;;4.60;100.00
59043;BME280;44826;51.596;5.624;2024-02-26T04:02:42;99817.84;;;4.58;100.00
59043;BME280;44826;51.596;5.624;2024-02-26T04:05:11;99823.88;;;4.57;100.00
59043;BME280;44826;51.596;5.624;2024-02-26T04:07:37;99824.75;;;4.56;100.00
59043;BME280;44826;51.596;5.624;2024-02-26T04:10:02;99827.31;;;4.56;100.00
59043;BME280;44826;51.596;5.624;2024-02-26T04:12:30;99830.78;;;4.55;100.00
59043;BME280;44826;51.596;5.624;2024-02-26T04:14:56;99830.00;;;4.51;100.00
59043;BME280;44826;51.596;5.624;2024-02-26T04:17:21;99818.00;;;4.49;100.00
59043;BME280;44826;51.596;5.624;2024-02-26T04:19:46;99818.84;;;4.49;100.00
59043;BME280;44826;51.596;5.624;2024-02-26T04:22:12;99823.19;;;4.46;100.00
59043;BME280;44826;51.596;5.624;2024-02-26T04:24:37;99823.19;;;4.46;100.00
59043;BME280;44826;51.596;5.624;2024-02-26T04:27:03;99819.81;;;4.42;100.00
59043;BME280;44826;51.596;5.624;2024-02-26T04:29:28;99825.88;;;4.39;100.00
59043;BME280;44826;51.596;5.624;2024-02-26T04:31:53;99824.22;;;4.35;100.00
59043;BME280;44826;51.596;5.624;2024-02-26T04:34:19;99827.69;;;4.34;100.00
59043;BME280;44826;51.596;5.624;2024-02-26T04:36:44;99828.50;;;4.36;100.00
59043;BME280;44826;51.596;5.624;2024-02-26T04:39:09;99839.69;;;4.35;100.00
59043;BME280;44826;51.596;5.624;2024-02-26T04:41:35;99831.13;;;4.33;100.00
59043;BME280;44826;51.596;5.624;2024-02-26T04:44:00;99838.91;;;4.30;100.00
59043;BME280;44826;51.596;5.624;2024-02-26T04:46:27;99835.50;;;4.30;100.00
59043;BME280;44826;51.596;5.624;2024-02-26T04:48:53;99840.63;;;4.28;100.00
59043;BME280;44826;51.596;5.624;2024-02-26T04:51:18;99841.59;;;4.24;100.00
59043;BME280;44826;51.596;5.624;2024-02-26T04:53:44;99858.69;;;4.27;100.00
59043;BME280;44826;51.596;5.624;2024-02-26T04:56:09;99855.28;;;4.26;100.00
59043;BME280;44826;51.596;5.624;2024-02-26T04:58:34;99857.03;;;4.24;100.00
59043;BME280;44826;51.596;5.624;2024-02-26T05:00:59;99852.72;;;4.24;100.00
59043;BME280;44826;51.596;5.624;2024-02-26T05:03:25;99845.91;;;4.22;100.00
59043;BME280;44826;51.596;5.624;2024-02-26T05:05:50;99842.47;;;4.21;100.00
59043;BME280;44826;51.596;5.624;2024-02-26T05:08:15;99845.91;;;4.22;100.00
59043;BME280;44826;51.596;5.624;2024-02-26T05:10:41;99845.03;;;4.21;100.00
59043;BME280;44826;51.596;5.624;2024-02-26T05:13:08;99845.06;;;4.20;100.00
59043;BME280;44826;51.596;5.624;2024-02-26T05:15:33;99852.81;;;4.20;100.00
59043;BME280;44826;51.596;5.624;2024-02-26T05:17:59;99841.66;;;4.18;100.00
59043;BME280;44826;51.596;5.624;2024-02-26T05:20:25;99841.63;;;4.21;100.00
59043;BME280;44826;51.596;5.624;2024-02-26T05:22:50;99845.06;;;4.20;100.00
59043;BME280;44826;51.596;5.624;2024-02-26T05:25:15;99849.34;;;4.19;100.00
59043;BME280;44826;51.596;5.624;2024-02-26T05:27:41;99851.94;;;4.21;100.00
59043;BME280;44826;51.596;5.624;2024-02-26T05:30:07;99857.94;;;4.20;100.00
59043;BME280;44826;51.596;5.624;2024-02-26T05:32:32;99863.97;;;4.19;100.00
59043;BME280;44826;51.596;5.624;2024-02-26T05:34:58;99861.34;;;4.20;100.00
59043;BME280;44826;51.596;5.624;2024-02-26T05:37:23;99851.06;;;4.22;100.00
59043;BME280;44826;51.596;5.624;2024-02-26T05:39:48;99867.38;;;4.21;100.00
59043;BME280;44826;51.596;5.624;2024-02-26T05:42:14;99860.53;;;4.20;100.00
59043;BME280;44826;51.596;5.624;2024-02-26T05:44:39;99866.53;;;4.19;100.00
59043;BME280;44826;51.596;5.624;2024-02-26T05:47:04;99871.69;;;4.19;100.00
59043;BME280;44826;51.596;5.624;2024-02-26T05:49:30;99874.31;;;4.16;100.00
59043;BME280;44826;51.596;5.624;2024-02-26T05:51:56;99876.88;;;4.17;100.00
59043;BME280;44826;51.596;5.624;2024-02-26T05:54:21;99884.59;;;4.16;100.00
59043;BME280;44826;51.596;5.624;2024-02-26T05:56:46;99884.56;;;4.19;100.00
59043;BME280;44826;51.596;5.624;2024-02-26T05:59:12;99887.13;;;4.19;100.00
59043;BME280;44826;51.596;5.624;2024-02-26T06:01:37;99886.28;;;4.20;100.00
59043;BME280;44826;51.596;5.624;2024-02-26T06:04:02;99894.03;;;4.18;100.00
59043;BME280;44826;51.596;5.624;2024-02-26T06:06:28;99898.31;;;4.18;100.00
59043;BME280;44826;51.596;5.624;2024-02-26T06:08:53;99900.00;;;4.19;100.00
59043;BME280;44826;51.596;5.624;2024-02-26T06:11:18;99889.75;;;4.16;100.00
59043;BME280;44826;51.596;5.624;2024-02-26T06:13:44;99893.16;;;4.18;100.00
59043;BME280;44826;51.596;5.624;2024-02-26T06:16:09;99905.16;;;4.19;100.00
59043;BME280;44826;51.596;5.624;2024-02-26T06:18:35;99913.75;;;4.18;100.00
59043;BME280;44826;51.596;5.624;2024-02-26T06:21:00;99909.47;;;4.17;100.00
59043;BME280;44826;51.596;5.624;2024-02-26T06:23:25;99918.06;;;4.16;100.00
59043;BME280;44826;51.596;5.624;2024-02-26T06:25:51;99908.66;;;4.15;100.00
59043;BME280;44826;51.596;5.624;2024-02-26T06:28:17;99917.22;;;4.14;100.00
59043;BME280;44826;51.596;5.624;2024-02-26T06:30:42;99921.56;;;4.13;100.00
59043;BME280;44826;51.596;5.624;2024-02-26T06:33:08;99922.38;;;4.14;100.00
59043;BME280;44826;51.596;5.624;2024-02-26T06:35:33;99930.94;;;4.16;100.00
59043;BME280;44826;51.596;5.624;2024-02-26T06:37:58;99934.38;;;4.15;100.00
59043;BME280;44826;51.596;5.624;2024-02-26T06:40:24;99934.41;;;4.12;100.00
59043;BME280;44826;51.596;5.624;2024-02-26T06:42:50;99937.88;;;4.12;100.00
59043;BME280;44826;51.596;5.624;2024-02-26T06:45:16;99935.28;;;4.10;100.00
59043;BME280;44826;51.596;5.624;2024-02-26T06:47:43;99935.28;;;4.10;100.00
59043;BME280;44826;51.596;5.624;2024-02-26T06:50:11;99940.44;;;4.12;100.00
59043;BME280;44826;51.596;5.624;2024-02-26T06:52:36;99937.88;;;4.12;100.00
59043;BME280;44826;51.596;5.624;2024-02-26T06:55:01;99943.06;;;4.09;100.00
59043;BME280;44826;51.596;5.624;2024-02-26T06:57:27;99948.19;;;4.09;100.00
59043;BME280;44826;51.596;5.624;2024-02-26T06:59:52;99949.94;;;4.08;100.00
59043;BME280;44826;51.596;5.624;2024-02-26T07:02:17;99955.09;;;4.07;100.00
59043;BME280;44826;51.596;5.624;2024-02-26T07:04:43;99948.22;;;4.07;100.00
59043;BME280;44826;51.596;5.624;2024-02-26T07:07:08;99958.56;;;4.04;100.00
59043;BME280;44826;51.596;5.624;2024-02-26T07:09:34;99961.13;;;4.04;100.00
59043;BME280;44826;51.596;5.624;2024-02-26T07:11:59;99960.31;;;4.02;100.00
59043;BME280;44826;51.596;5.624;2024-02-26T07:14:25;99960.31;;;4.02;100.00
59043;BME280;44826;51.596;5.624;2024-02-26T07:16:50;99968.88;;;4.01;100.00
59043;BME280;44826;51.596;5.624;2024-02-26T07:19:16;99979.16;;;4.04;100.00
59043;BME280;44826;51.596;5.624;2024-02-26T07:21:41;99976.56;;;4.04;100.00
59043;BME280;44826;51.596;5.624;2024-02-26T07:24:07;99986.00;;;4.05;100.00
59043;BME280;44826;51.596;5.624;2024-02-26T07:26:32;99981.72;;;4.03;100.00
59043;BME280;44826;51.596;5.624;2024-02-26T07:28:58;99989.44;;;4.03;100.00
59043;BME280;44826;51.596;5.624;2024-02-26T07:31:23;100002.31;;;4.04;100.00
59043;BME280;44826;51.596;5.624;2024-02-26T07:33:49;99998.88;;;4.05;100.00
59043;BME280;44826;51.596;5.624;2024-02-26T07:36:14;99992.88;;;4.03;100.00
59043;BME280;44826;51.596;5.624;2024-02-26T07:38:39;100005.72;;;4.05;100.00
59043;BME280;44826;51.596;5.624;2024-02-26T07:41:05;99999.75;;;4.04;100.00
59043;BME280;44826;51.596;5.624;2024-02-26T07:43:30;100008.31;;;4.06;100.00
59043;BME280;44826;51.596;5.624;2024-02-26T07:45:56;100004.84;;;4.06;100.00
59043;BME280;44826;51.596;5.624;2024-02-26T07:48:22;100014.28;;;4.07;100.00
59043;BME280;44826;51.596;5.624;2024-02-26T07:50:47;100016.03;;;4.06;100.00
59043;BME280;44826;51.596;5.624;2024-02-26T07:53:13;100018.56;;;4.09;100.00
59043;BME280;44826;51.596;5.624;2024-02-26T07:55:38;100024.56;;;4.08;100.00
59043;BME280;44826;51.596;5.624;2024-02-26T07:58:04;100030.59;;;4.06;100.00
59043;BME280;44826;51.596;5.624;2024-02-26T08:00:29;100028.88;;;4.06;100.00
59043;BME280;44826;51.596;5.624;2024-02-26T08:02:54;100035.78;;;4.04;100.00
59043;BME280;44826;51.596;5.624;2024-02-26T08:05:20;100045.19;;;4.04;100.00
59043;BME280;44826;51.596;5.624;2024-02-26T08:07:45;100038.34;;;4.03;100.00
59043;BME280;44826;51.596;5.624;2024-02-26T08:10:11;100048.63;;;4.06;100.00
59043;BME280;44826;51.596;5.624;2024-02-26T08:12:36;100046.06;;;4.04;100.00
59043;BME280;44826;51.596;5.624;2024-02-26T08:15:02;100048.66;;;4.04;100.00
59043;BME280;44826;51.596;5.624;2024-02-26T08:17:27;100049.44;;;4.08;100.00
59043;BME280;44826;51.596;5.624;2024-02-26T08:19:53;100051.13;;;4.10;100.00
59043;BME280;44826;51.596;5.624;2024-02-26T08:22:18;100061.41;;;4.10;100.00
59043;BME280;44826;51.596;5.624;2024-02-26T08:24:44;100059.75;;;4.09;100.00
59043;BME280;44826;51.596;5.624;2024-02-26T08:27:09;100061.38;;;4.14;100.00
59043;BME280;44826;51.596;5.624;2024-02-26T08:29:35;100069.97;;;4.14;100.00
59043;BME280;44826;51.596;5.624;2024-02-26T08:32:00;100076.81;;;4.17;100.00
59043;BME280;44826;51.596;5.624;2024-02-26T08:34:26;100077.69;;;4.17;100.00
59043;BME280;44826;51.596;5.624;2024-02-26T08:36:51;100087.09;;;4.18;100.00
59043;BME280;44826;51.596;5.624;2024-02-26T08:39:17;100081.13;;;4.16;100.00
59043;BME280;44826;51.596;5.624;2024-02-26T08:41:43;100086.22;;;4.19;100.00
59043;BME280;44826;51.596;5.624;2024-02-26T08:44:09;100086.22;;;4.19;100.00
59043;BME280;44826;51.596;5.624;2024-02-26T08:46:34;100090.53;;;4.19;100.00
59043;BME280;44826;51.596;5.624;2024-02-26T08:49:00;100094.81;;;4.18;100.00
59043;BME280;44826;51.596;5.624;2024-02-26T08:51:25;100092.25;;;4.18;100.00
59043;BME280;44826;51.596;5.624;2024-02-26T08:53:51;100089.63;;;4.21;100.00
59043;BME280;44826;51.596;5.624;2024-02-26T08:56:16;100089.63;;;4.21;100.00
59043;BME280;44826;51.596;5.624;2024-02-26T08:58:45;100093.91;;;4.22;100.00
59043;BME280;44826;51.596;5.624;2024-02-26T09:01:13;100100.78;;;4.22;100.00
59043;BME280;44826;51.596;5.624;2024-02-26T09:03:39;100107.63;;;4.23;100.00
59043;BME280;44826;51.596;5.624;2024-02-26T09:06:05;100112.78;;;4.21;100.00
59043;BME280;44826;51.596;5.624;2024-02-26T09:08:32;100117.06;;;4.22;100.00
59043;BME280;44826;51.596;5.624;2024-02-26T09:10:57;100117.06;;;4.22;100.00
59043;BME280;44826;51.596;5.624;2024-02-26T09:13:22;100118.78;;;4.25;100.00
59043;BME280;44826;51.596;5.624;2024-02-26T09:15:48;100118.78;;;4.23;100.00
59043;BME280;44826;51.596;5.624;2024-02-26T09:18:14;100123.06;;;4.26;100.00
59043;BME280;44826;51.596;5.624;2024-02-26T09:20:40;100121.34;;;4.25;100.00
59043;BME280;44826;51.596;5.624;2024-02-26T09:23:05;100132.50;;;4.25;100.00
59043;BME280;44826;51.596;5.624;2024-02-26T09:25:30;100140.19;;;4.27;100.00
59043;BME280;44826;51.596;5.624;2024-02-26T09:27:56;100138.44;;;4.29;100.00
59043;BME280;44826;51.596;5.624;2024-02-26T09:30:21;100139.31;;;4.28;100.00
59043;BME280;44826;51.596;5.624;2024-02-26T09:32:47;100143.59;;;4.29;100.00
59043;BME280;44826;51.596;5.624;2024-02-26T09:35:13;100153.91;;;4.29;100.00
59043;BME280;44826;51.596;5.624;2024-02-26T09:37:38;100151.34;;;4.28;100.00
59043;BME280;44826;51.596;5.624;2024-02-26T09:40:04;100155.63;;;4.29;100.00
59043;BME280;44826;51.596;5.624;2024-02-26T09:42:31;100163.38;;;4.29;100.00
59043;BME280;44826;51.596;5.624;2024-02-26T09:45:00;100174.50;;;4.29;100.00
59043;BME280;44826;51.596;5.624;2024-02-26T09:47:28;100171.94;;;4.29;100.00
59043;BME280;44826;51.596;5.624;2024-02-26T09:49:56;100167.63;;;4.31;100.00
59043;BME280;44826;51.596;5.624;2024-02-26T09:52:23;100172.78;;;4.30;100.00
59043;BME280;44826;51.596;5.624;2024-02-26T09:54:49;100178.75;;;4.33;100.00
59043;BME280;44826;51.596;5.624;2024-02-26T09:57:15;100186.44;;;4.36;100.00
59043;BME280;44826;51.596;5.624;2024-02-26T09:59:42;100187.25;;;4.40;100.00
59043;BME280;44826;51.596;5.624;2024-02-26T10:02:12;100192.41;;;4.40;100.00
59043;BME280;44826;51.596;5.624;2024-02-26T10:04:39;100194.19;;;4.36;100.00
59043;BME280;44826;51.596;5.624;2024-02-26T10:07:10;100198.44;;;4.40;100.00
59043;BME280;44826;51.596;5.624;2024-02-26T10:09:36;100202.72;;;4.40;100.00
59043;BME280;44826;51.596;5.624;2024-02-26T10:12:02;100209.56;;;4.43;100.00
59043;BME280;44826;51.596;5.624;2024-02-26T10:14:27;100207.84;;;4.43;100.00
59043;BME280;44826;51.596;5.624;2024-02-26T10:16:53;100210.41;;;4.43;100.00
59043;BME280;44826;51.596;5.624;2024-02-26T10:19:25;100217.31;;;4.43;100.00
59043;BME280;44826;51.596;5.624;2024-02-26T10:21:55;100222.47;;;4.43;100.00
59043;BME280;44826;51.596;5.624;2024-02-26T10:24:21;100212.19;;;4.39;100.00
59043;BME280;44826;51.596;5.624;2024-02-26T10:26:46;100229.28;;;4.45;100.00
59043;BME280;44826;51.596;5.624;2024-02-26T10:29:12;100230.13;;;4.47;100.00
59043;BME280;44826;51.596;5.624;2024-02-26T10:31:42;100234.41;;;4.47;100.00
59043;BME280;44826;51.596;5.624;2024-02-26T10:34:07;100240.41;;;4.49;100.00
59043;BME280;44826;51.596;5.624;2024-02-26T10:36:35;100244.69;;;4.50;100.00
59043;BME280;44826;51.596;5.624;2024-02-26T10:39:03;100248.97;;;4.52;100.00
59043;BME280;44826;51.596;5.624;2024-02-26T10:41:29;100257.53;;;4.53;100.00
59043;BME280;44826;51.596;5.624;2024-02-26T10:43:55;100263.56;;;4.52;100.00
59043;BME280;44826;51.596;5.624;2024-02-26T10:46:20;100264.41;;;4.54;100.00
59043;BME280;44826;51.596;5.624;2024-02-26T10:48:52;100275.56;;;4.53;100.00
59043;BME280;44826;51.596;5.624;2024-02-26T10:51:29;100273.03;;;4.51;100.00
59043;BME280;44826;51.596;5.624;2024-02-26T10:53:56;100279.88;;;4.52;100.00
59043;BME280;44826;51.596;5.624;2024-02-26T10:56:28;100277.31;;;4.51;100.00
59043;BME280;44826;51.596;5.624;2024-02-26T10:58:55;100285.91;;;4.50;100.00
59043;BME280;44826;51.596;5.624;2024-02-26T11:01:21;100279.88;;;4.51;100.00
59043;BME280;44826;51.596;5.624;2024-02-26T11:03:51;100292.75;;;4.51;100.00
59043;BME280;44826;51.596;5.624;2024-02-26T11:06:17;100295.34;;;4.51;100.00
59043;BME280;44826;51.596;5.624;2024-02-26T11:08:44;100295.34;;;4.52;100.00
59043;BME280;44826;51.596;5.624;2024-02-26T11:11:13;100298.75;;;4.53;100.00
59043;BME280;44826;51.596;5.624;2024-02-26T11:13:41;100300.44;;;4.55;100.00
59043;BME280;44826;51.596;5.624;2024-02-26T11:16:11;100308.16;;;4.57;100.00
59043;BME280;44826;51.596;5.624;2024-02-26T11:18:47;100296.16;;;4.54;100.00
59043;BME280;44826;51.596;5.624;2024-02-26T11:21:31;100301.25;;;4.61;100.00
59043;BME280;44826;51.596;5.624;2024-02-26T11:24:15;100306.41;;;4.61;100.00
59043;BME280;44826;51.596;5.624;2024-02-26T11:26:47;100307.25;;;4.63;100.00
59043;BME280;44826;51.596;5.624;2024-02-26T11:29:16;100311.50;;;4.65;100.00
59043;BME280;44826;51.596;5.624;2024-02-26T11:31:42;100311.50;;;4.65;100.00
59043;BME280;44826;51.596;5.624;2024-02-26T11:34:09;100307.25;;;4.63;100.00
59043;BME280;44826;51.596;5.624;2024-02-26T11:36:36;100313.25;;;4.63;100.00
59043;BME280;44826;51.596;5.624;2024-02-26T11:39:02;100322.69;;;4.64;100.00
59043;BME280;44826;51.596;5.624;2024-02-26T11:41:29;100306.38;;;4.64;100.00
59043;BME280;44826;51.596;5.624;2024-02-26T11:44:00;100313.31;;;4.60;100.00
59043;BME280;44826;51.596;5.624;2024-02-26T11:46:40;100315.88;;;4.59;100.00
59043;BME280;44826;51.596;5.624;2024-02-26T11:49:29;100313.31;;;4.60;100.00
59043;BME280;44826;51.596;5.624;2024-02-26T11:51:55;100309.88;;;4.58;100.00
59043;BME280;44826;51.596;5.624;2024-02-26T11:54:48;100321.88;;;4.58;100.00
59043;BME280;44826;51.596;5.624;2024-02-26T11:59:47;100323.63;;;4.55;100.00
59043;BME280;44826;51.596;5.624;2024-02-26T12:02:51;100321.03;;;4.55;100.00
59043;BME280;44826;51.596;5.624;2024-02-26T12:05:23;100335.63;;;4.56;100.00
59043;BME280;44826;51.596;5.624;2024-02-26T12:08:02;100329.63;;;4.58;100.00
59043;BME280;44826;51.596;5.624;2024-02-26T12:10:33;100329.63;;;4.58;100.00
59043;BME280;44826;51.596;5.624;2024-02-26T12:13:10;100346.78;;;4.59;100.00
59043;BME280;44826;51.596;5.624;2024-02-26T12:15:59;100344.25;;;4.57;100.00
59043;BME280;44826;51.596;5.624;2024-02-26T12:18:24;100347.66;;;4.58;100.00
59043;BME280;44826;51.596;5.624;2024-02-26T12:21:03;100359.66;;;4.62;100.00
59043;BME280;44826;51.596;5.624;2024-02-26T12:23:29;100356.25;;;4.58;100.00
59043;BME280;44826;51.596;5.624;2024-02-26T12:26:01;100355.41;;;4.56;100.00
59043;BME280;44826;51.596;5.624;2024-02-26T12:28:28;100357.13;;;4.57;100.00
59043;BME280;44826;51.596;5.624;2024-02-26T12:30:54;100361.44;;;4.55;100.00
59043;BME280;44826;51.596;5.624;2024-02-26T12:33:19;100359.69;;;4.57;100.00
59043;BME280;44826;51.596;5.624;2024-02-26T12:35:45;100365.69;;;4.59;100.00
59043;BME280;44826;51.596;5.624;2024-02-26T12:38:14;100368.28;;;4.59;100.00
59043;BME280;44826;51.596;5.624;2024-02-26T12:40:40;100371.72;;;4.58;100.00
59043;BME280;44826;51.596;5.624;2024-02-26T12:43:05;100380.28;;;4.60;100.00
59043;BME280;44826;51.596;5.624;2024-02-26T12:45:31;100378.59;;;4.56;100.00
59043;BME280;44826;51.596;5.624;2024-02-26T12:47:58;100386.31;;;4.54;100.00
59043;BME280;44826;51.596;5.624;2024-02-26T12:50:24;100400.91;;;4.57;100.00
59043;BME280;44826;51.596;5.624;2024-02-26T12:52:51;100403.47;;;4.55;100.00
59043;BME280;44826;51.596;5.624;2024-02-26T12:55:20;100389.75;;;4.56;100.00
59043;BME280;44826;51.596;5.624;2024-02-26T12:57:46;100393.19;;;4.57;100.00